createdAt,value
2018-06-15T00:00:18.908Z,12.89
2018-06-15T00:02:53.235Z,12.86
2018-06-15T00:05:22.199Z,12.79
2018-06-15T00:07:51.185Z,12.80
2018-06-15T00:10:20.215Z,12.77
2018-06-15T00:12:49.208Z,12.72
2018-06-15T00:15:18.201Z,12.70
2018-06-15T00:17:47.639Z,12.64
2018-06-15T00:20:16.657Z,12.62
2018-06-15T00:22:46.011Z,12.61
2018-06-15T00:25:14.987Z,12.63
2018-06-15T00:27:44.327Z,12.68
2018-06-15T00:30:13.363Z,12.72
2018-06-15T00:32:42.353Z,12.70
2018-06-15T00:35:11.325Z,12.70
2018-06-15T00:37:40.298Z,12.67
2018-06-15T00:40:09.340Z,12.66
2018-06-15T00:42:38.309Z,12.63
2018-06-15T00:45:07.282Z,12.61
2018-06-15T00:47:36.284Z,12.59
2018-06-15T00:50:05.269Z,12.57
2018-06-15T00:52:34.249Z,12.55
2018-06-15T00:55:03.237Z,12.52
2018-06-15T00:57:45.831Z,12.53
2018-06-15T01:00:15.290Z,12.52
2018-06-15T01:02:44.307Z,12.52
2018-06-15T01:05:13.334Z,12.53
2018-06-15T01:07:42.367Z,12.55
2018-06-15T01:10:11.587Z,12.55
2018-06-15T01:12:40.575Z,12.53
2018-06-15T01:15:09.651Z,12.50
2018-06-15T01:17:38.779Z,12.50
2018-06-15T01:20:07.775Z,12.55
2018-06-15T01:22:36.762Z,12.55
2018-06-15T01:25:05.742Z,12.51
2018-06-15T01:27:34.720Z,12.50
2018-06-15T01:30:03.718Z,12.50
2018-06-15T01:32:32.682Z,12.49
2018-06-15T01:35:01.662Z,12.49
2018-06-15T01:37:30.653Z,12.50
2018-06-15T01:39:59.698Z,12.52
2018-06-15T01:42:28.740Z,12.47
2018-06-15T01:44:57.716Z,12.46
2018-06-15T01:47:26.670Z,12.45
2018-06-15T01:49:55.679Z,12.44
2018-06-15T01:52:24.670Z,12.42
2018-06-15T01:54:53.630Z,12.41
2018-06-15T01:57:22.688Z,12.34
2018-06-15T01:59:51.660Z,12.33
2018-06-15T02:02:20.689Z,12.28
2018-06-15T02:04:49.671Z,12.28
2018-06-15T02:07:18.660Z,12.24
2018-06-15T02:09:47.850Z,12.19
2018-06-15T02:12:16.963Z,12.11
2018-06-15T02:14:45.969Z,12.07
2018-06-15T02:17:14.982Z,12.05
2018-06-15T02:19:43.959Z,12.04
2018-06-15T02:22:12.961Z,11.97
2018-06-15T02:24:42.039Z,11.94
2018-06-15T02:27:11.022Z,11.89
2018-06-15T02:29:40.028Z,11.84
2018-06-15T02:32:09.030Z,11.80
2018-06-15T02:34:38.013Z,11.81
2018-06-15T02:37:07.075Z,11.76
2018-06-15T02:39:36.073Z,11.70
2018-06-15T02:42:05.073Z,11.69
2018-06-15T02:44:34.114Z,11.67
2018-06-15T02:47:03.097Z,11.63
2018-06-15T02:49:32.064Z,11.61
2018-06-15T02:52:01.115Z,11.58
2018-06-15T02:54:30.148Z,11.57
2018-06-15T02:56:59.134Z,11.55
2018-06-15T02:59:28.141Z,11.54
2018-06-15T03:01:57.099Z,11.49
2018-06-15T03:04:26.083Z,11.48
2018-06-15T03:06:55.164Z,11.43
2018-06-15T03:09:24.193Z,11.38
2018-06-15T03:11:53.201Z,11.33
2018-06-15T03:14:22.208Z,11.36
2018-06-15T03:16:51.176Z,11.32
2018-06-15T03:19:20.180Z,11.31
2018-06-15T03:21:49.182Z,11.37
2018-06-15T03:24:18.231Z,11.40
2018-06-15T03:26:47.231Z,11.42
2018-06-15T03:29:16.210Z,11.44
2018-06-15T03:31:45.287Z,11.45
2018-06-15T03:34:14.258Z,11.48
2018-06-15T03:36:43.244Z,11.51
2018-06-15T03:39:13.035Z,11.55
2018-06-15T03:41:42.198Z,11.59
2018-06-15T03:44:11.176Z,11.59
2018-06-15T03:46:40.177Z,11.60
2018-06-15T03:49:09.120Z,11.61
2018-06-15T03:51:38.091Z,11.62
2018-06-15T03:54:07.069Z,11.68
2018-06-15T03:56:37.793Z,11.73
2018-06-15T03:59:07.288Z,11.70
2018-06-15T04:01:36.508Z,11.75
2018-06-15T04:04:05.633Z,11.75
2018-06-15T04:06:34.610Z,11.83
2018-06-15T04:09:04.180Z,11.83
2018-06-15T04:11:33.278Z,11.86
2018-06-15T04:14:02.251Z,11.92
2018-06-15T04:16:31.228Z,11.97
2018-06-15T04:19:00.228Z,12.06
2018-06-15T04:21:29.197Z,12.13
2018-06-15T04:23:58.207Z,12.14
2018-06-15T04:26:27.195Z,12.25
2018-06-15T04:28:56.173Z,12.31
2018-06-15T04:31:25.173Z,12.37
2018-06-15T04:33:54.475Z,12.47
2018-06-15T04:36:23.569Z,12.44
2018-06-15T04:38:52.590Z,12.50
2018-06-15T04:41:21.678Z,12.59
2018-06-15T04:43:50.747Z,12.59
2018-06-15T04:46:19.716Z,12.69
2018-06-15T04:48:49.882Z,12.76
2018-06-15T04:51:18.844Z,12.80
2018-06-15T04:53:47.824Z,12.91
2018-06-15T04:56:16.905Z,12.98
2018-06-15T04:58:46.094Z,13.11
2018-06-15T05:01:15.099Z,13.17
2018-06-15T05:03:44.112Z,13.27
2018-06-15T05:06:13.076Z,13.40
2018-06-15T05:08:42.825Z,13.53
2018-06-15T05:11:12.309Z,13.70
2018-06-15T05:13:41.335Z,13.89
2018-06-15T05:16:10.327Z,14.03
2018-06-15T05:18:39.363Z,14.12
2018-06-15T05:21:08.435Z,14.28
2018-06-15T05:23:37.390Z,14.47
2018-06-15T05:26:06.427Z,14.62
2018-06-15T05:28:35.687Z,14.83
2018-06-15T05:31:04.786Z,14.91
2018-06-15T05:33:33.819Z,15.12
2018-06-15T05:36:02.776Z,15.25
2018-06-15T05:38:31.785Z,15.41
2018-06-15T05:41:00.759Z,15.54
2018-06-15T05:43:29.712Z,15.69
2018-06-15T05:45:58.718Z,15.87
2018-06-15T05:48:27.713Z,15.99
2018-06-15T05:50:56.902Z,16.27
2018-06-15T05:53:26.424Z,16.40
2018-06-15T05:55:55.424Z,16.55
2018-06-15T05:58:24.444Z,16.68
2018-06-15T06:00:58.793Z,16.88
2018-06-15T06:03:27.867Z,17.02
2018-06-15T06:05:56.871Z,17.39
2018-06-15T06:08:25.871Z,17.77
2018-06-15T06:10:54.899Z,18.85
2018-06-15T06:13:23.879Z,20.22
2018-06-15T06:15:52.844Z,21.05
2018-06-15T06:18:21.835Z,20.79
2018-06-15T06:20:50.883Z,20.96
2018-06-15T06:23:19.878Z,21.69
2018-06-15T06:25:48.865Z,22.63
2018-06-15T06:28:17.869Z,22.94
2018-06-15T06:30:49.235Z,23.25
2018-06-15T06:33:18.256Z,24.14
2018-06-15T06:35:47.300Z,25.04
2018-06-15T06:38:16.346Z,25.11
2018-06-15T06:40:45.528Z,25.51
2018-06-15T06:43:14.554Z,25.68
2018-06-15T06:45:43.537Z,26.65
2018-06-15T06:48:12.873Z,26.34
2018-06-15T06:50:41.880Z,25.60
2018-06-15T06:53:10.962Z,25.86
2018-06-15T06:55:40.117Z,25.87
2018-06-15T06:58:09.243Z,26.63
2018-06-15T07:00:38.258Z,26.11
2018-06-15T07:03:07.281Z,26.35
2018-06-15T07:05:36.237Z,26.08
2018-06-15T07:08:05.219Z,26.79
2018-06-15T07:10:34.195Z,26.93
2018-06-15T07:13:03.193Z,27.27
2018-06-15T07:15:32.205Z,27.26
2018-06-15T07:18:01.215Z,27.23
2018-06-15T07:20:30.181Z,27.55
2018-06-15T07:22:59.139Z,28.12
2018-06-15T07:25:28.091Z,26.87
2018-06-15T07:27:57.067Z,26.90
2018-06-15T07:30:26.007Z,26.51
2018-06-15T07:32:54.982Z,26.86
2018-06-15T07:35:23.956Z,26.73
2018-06-15T07:37:53.006Z,26.59
2018-06-15T07:40:22.025Z,26.97
2018-06-15T07:42:51.100Z,26.50
2018-06-15T07:45:20.106Z,26.88
2018-06-15T07:47:49.074Z,26.92
2018-06-15T07:50:18.146Z,27.38
2018-06-15T07:52:47.091Z,28.21
2018-06-15T07:55:16.083Z,28.74
2018-06-15T07:57:45.098Z,27.95
2018-06-15T08:00:14.112Z,28.12
2018-06-15T08:02:43.109Z,27.59
2018-06-15T08:05:12.147Z,27.59
2018-06-15T08:07:41.127Z,26.34
2018-06-15T08:10:10.174Z,26.05
2018-06-15T08:12:39.043Z,26.67
2018-06-15T08:15:08.069Z,27.39
2018-06-15T08:17:37.083Z,27.99
2018-06-15T08:20:06.030Z,28.62
2018-06-15T08:22:35.103Z,28.98
2018-06-15T08:25:04.095Z,30.02
2018-06-15T08:27:33.054Z,28.95
2018-06-15T08:30:02.016Z,29.30
2018-06-15T08:32:31.064Z,29.44
2018-06-15T08:35:00.106Z,29.25
2018-06-15T08:37:29.052Z,29.14
2018-06-15T08:39:58.013Z,29.94
2018-06-15T08:42:27.043Z,29.88
2018-06-15T08:44:56.072Z,29.23
2018-06-15T08:47:25.146Z,29.52
2018-06-15T08:49:54.159Z,29.49
2018-06-15T08:52:23.402Z,29.30
2018-06-15T08:54:52.391Z,29.50
2018-06-15T08:57:21.359Z,29.31
2018-06-15T08:59:50.297Z,29.28
2018-06-15T09:02:19.284Z,29.99
2018-06-15T09:04:48.297Z,30.11
2018-06-15T09:07:17.276Z,29.91
2018-06-15T09:09:46.290Z,29.67
2018-06-15T09:12:15.329Z,30.00
2018-06-15T09:14:44.309Z,30.09
2018-06-15T09:17:13.297Z,30.71
2018-06-15T09:19:42.272Z,32.02
2018-06-15T09:22:11.243Z,31.39
2018-06-15T09:24:40.294Z,32.53
2018-06-15T09:27:09.301Z,32.32
2018-06-15T09:29:38.267Z,31.11
2018-06-15T09:32:07.288Z,31.22
2018-06-15T09:34:36.271Z,31.60
2018-06-15T09:37:05.255Z,30.20
2018-06-15T09:39:34.252Z,28.39
2018-06-15T09:42:03.228Z,28.24
2018-06-15T09:44:32.216Z,28.27
2018-06-15T09:47:01.185Z,28.97
2018-06-15T09:49:30.146Z,29.49
2018-06-15T09:51:59.128Z,30.28
2018-06-15T09:54:28.132Z,30.46
2018-06-15T09:56:57.170Z,30.81
2018-06-15T09:59:26.149Z,29.13
2018-06-15T10:01:55.149Z,28.11
2018-06-15T10:04:24.197Z,27.47
2018-06-15T10:06:53.319Z,26.85
2018-06-15T10:09:22.477Z,26.37
2018-06-15T10:11:51.510Z,26.23
2018-06-15T10:14:20.496Z,26.59
2018-06-15T10:16:49.518Z,27.81
2018-06-15T10:19:18.473Z,28.36
2018-06-15T10:21:47.451Z,28.61
2018-06-15T10:24:16.717Z,28.60
2018-06-15T10:26:45.842Z,28.48
2018-06-15T10:29:14.812Z,28.60
2018-06-15T10:31:43.849Z,28.41
2018-06-15T10:34:12.829Z,29.01
2018-06-15T10:36:41.818Z,29.65
2018-06-15T10:39:11.683Z,30.30
2018-06-15T10:41:41.319Z,30.18
2018-06-15T10:44:10.251Z,28.07
2018-06-15T10:46:39.275Z,27.90
2018-06-15T10:49:08.280Z,27.78
2018-06-15T10:51:37.322Z,27.24
2018-06-15T10:54:06.332Z,27.18
2018-06-15T10:56:35.347Z,27.14
2018-06-15T10:59:04.316Z,27.28
2018-06-15T11:01:33.351Z,28.52
2018-06-15T11:04:02.338Z,29.61
2018-06-15T11:06:31.361Z,29.21
2018-06-15T11:09:00.422Z,29.80
2018-06-15T11:11:29.425Z,29.86
2018-06-15T11:13:58.392Z,29.12
2018-06-15T11:16:27.370Z,28.36
2018-06-15T11:18:56.362Z,27.69
2018-06-15T11:21:25.284Z,27.38
2018-06-15T11:23:54.230Z,26.99
2018-06-15T11:26:23.198Z,26.85
2018-06-15T11:28:52.184Z,26.31
2018-06-15T11:31:21.156Z,26.63
2018-06-15T11:33:50.186Z,26.78
2018-06-15T11:36:19.137Z,26.80
2018-06-15T11:38:48.117Z,27.31
2018-06-15T11:41:17.295Z,27.85
2018-06-15T11:43:46.098Z,28.70
2018-06-15T11:46:15.067Z,28.68
2018-06-15T11:48:44.097Z,27.69
2018-06-15T11:51:13.133Z,27.02
2018-06-15T11:53:42.101Z,26.45
2018-06-15T11:56:11.075Z,26.11
2018-06-15T11:58:40.221Z,25.93
2018-06-15T12:01:09.403Z,25.78
2018-06-15T12:03:38.848Z,25.72
2018-06-15T12:06:07.971Z,25.66
2018-06-15T12:08:36.962Z,25.70
2018-06-15T12:11:06.419Z,25.87
2018-06-15T12:13:35.790Z,26.08
2018-06-15T12:16:04.784Z,26.11
2018-06-15T12:18:33.748Z,26.24
2018-06-15T12:21:02.815Z,26.53
2018-06-15T12:23:32.480Z,27.08
2018-06-15T12:26:01.509Z,27.53
2018-06-15T12:28:30.519Z,28.08
2018-06-15T12:30:59.485Z,28.82
2018-06-15T12:33:28.473Z,28.58
2018-06-15T12:35:57.503Z,29.17
2018-06-15T12:38:26.527Z,29.31
2018-06-15T12:40:55.436Z,28.96
2018-06-15T12:43:24.470Z,29.19
2018-06-15T12:45:53.477Z,28.91
2018-06-15T12:48:22.417Z,27.75
2018-06-15T12:50:51.615Z,27.59
2018-06-15T12:53:20.616Z,27.83
2018-06-15T12:55:49.840Z,28.29
2018-06-15T12:58:18.955Z,29.12
2018-06-15T13:00:48.176Z,29.72
2018-06-15T13:03:17.168Z,28.89
2018-06-15T13:05:46.304Z,28.73
2018-06-15T13:08:15.323Z,28.21
2018-06-15T13:10:44.375Z,27.76
2018-06-15T13:13:13.611Z,28.00
2018-06-15T13:15:42.584Z,28.66
2018-06-15T13:18:11.999Z,29.02
2018-06-15T13:20:41.437Z,29.34
2018-06-15T13:23:10.408Z,28.84
2018-06-15T13:25:39.436Z,28.54
2018-06-15T13:28:08.469Z,28.25
2018-06-15T13:30:37.436Z,27.58
2018-06-15T13:33:06.382Z,27.23
2018-06-15T13:35:35.529Z,26.98
2018-06-15T13:38:04.604Z,27.26
2018-06-15T13:40:33.616Z,27.31
2018-06-15T13:43:02.595Z,27.38
2018-06-15T13:45:31.535Z,27.42
2018-06-15T13:48:00.518Z,27.42
2018-06-15T13:50:29.531Z,27.39
2018-06-15T13:52:58.566Z,27.62
2018-06-15T13:55:27.552Z,28.09
2018-06-15T13:57:56.518Z,28.20
2018-06-15T14:00:25.509Z,27.89
2018-06-15T14:02:54.444Z,27.55
2018-06-15T14:05:23.491Z,26.84
2018-06-15T14:07:52.536Z,26.48
2018-06-15T14:10:21.577Z,26.30
2018-06-15T14:12:51.023Z,26.20
2018-06-15T14:15:19.976Z,25.93
2018-06-15T14:17:49.111Z,25.76
2018-06-15T14:20:18.081Z,25.86
2018-06-15T14:22:47.055Z,25.45
2018-06-15T14:25:16.313Z,25.54
2018-06-15T14:27:45.355Z,25.36
2018-06-15T14:30:14.298Z,25.17
2018-06-15T14:32:43.428Z,25.32
2018-06-15T14:35:12.379Z,25.04
2018-06-15T14:37:41.413Z,25.09
2018-06-15T14:40:10.392Z,25.22
2018-06-15T14:42:41.742Z,25.31
2018-06-15T14:45:10.765Z,25.51
2018-06-15T14:47:40.457Z,25.51
2018-06-15T14:50:09.414Z,25.47
2018-06-15T14:52:38.468Z,25.36
2018-06-15T14:55:07.492Z,25.44
2018-06-15T14:57:36.502Z,25.50
2018-06-15T15:00:05.582Z,25.37
2018-06-15T15:02:34.630Z,25.21
2018-06-15T15:05:03.589Z,25.25
2018-06-15T15:07:32.653Z,24.97
2018-06-15T15:10:01.718Z,25.09
2018-06-15T15:12:30.801Z,25.07
2018-06-15T15:14:59.775Z,25.05
2018-06-15T15:17:28.782Z,24.85
2018-06-15T15:19:57.872Z,24.75
2018-06-15T15:22:26.888Z,24.66
2018-06-15T15:24:55.946Z,24.62
2018-06-15T15:27:24.969Z,24.71
2018-06-15T15:29:53.933Z,24.66
2018-06-15T15:32:22.915Z,24.64
2018-06-15T15:34:51.927Z,24.59
2018-06-15T15:37:21.181Z,24.70
2018-06-15T15:39:50.153Z,24.81
2018-06-15T15:42:19.187Z,24.71
2018-06-15T15:44:48.157Z,24.84
2018-06-15T15:47:17.171Z,24.66
2018-06-15T15:49:46.164Z,24.80
2018-06-15T15:52:15.202Z,24.99
2018-06-15T15:54:44.179Z,25.07
2018-06-15T15:57:13.234Z,25.01
2018-06-15T15:59:42.205Z,24.84
2018-06-15T16:02:11.215Z,24.77
2018-06-15T16:04:40.256Z,24.75
2018-06-15T16:07:09.256Z,24.67
2018-06-15T16:09:38.296Z,24.67
2018-06-15T16:12:07.264Z,24.83
2018-06-15T16:14:36.270Z,25.26
2018-06-15T16:17:05.230Z,25.43
2018-06-15T16:19:34.219Z,25.52
2018-06-15T16:22:03.271Z,25.78
2018-06-15T16:24:32.306Z,25.95
2018-06-15T16:27:01.279Z,25.70
2018-06-15T16:29:30.214Z,25.73
2018-06-15T16:31:59.209Z,25.92
2018-06-15T16:34:28.214Z,25.64
2018-06-15T16:36:57.206Z,25.54
2018-06-15T16:39:26.205Z,25.52
2018-06-15T16:41:55.175Z,25.52
2018-06-15T16:44:24.129Z,25.54
2018-06-15T16:46:53.135Z,25.51
2018-06-15T16:49:22.105Z,25.40
2018-06-15T16:51:51.072Z,25.25
2018-06-15T16:54:20.081Z,25.09
2018-06-15T16:56:49.104Z,25.04
2018-06-15T16:59:18.073Z,24.96
2018-06-15T17:01:47.090Z,24.96
2018-06-15T17:04:16.125Z,25.04
2018-06-15T17:06:45.413Z,25.04
2018-06-15T17:09:14.410Z,24.84
2018-06-15T17:11:43.489Z,24.72
2018-06-15T17:14:12.491Z,24.70
2018-06-15T17:16:41.681Z,24.55
2018-06-15T17:19:10.629Z,24.60
2018-06-15T17:21:39.611Z,24.61
2018-06-15T17:24:08.673Z,24.65
2018-06-15T17:26:37.674Z,24.67
2018-06-15T17:29:06.670Z,24.64
2018-06-15T17:31:35.709Z,24.40
2018-06-15T17:34:04.685Z,24.31
2018-06-15T17:36:33.698Z,24.36
2018-06-15T17:39:02.942Z,24.13
2018-06-15T17:41:32.003Z,24.11
2018-06-15T17:44:01.026Z,24.05
2018-06-15T17:46:30.001Z,24.20
2018-06-15T17:48:58.979Z,24.05
2018-06-15T17:51:27.962Z,23.95
2018-06-15T17:53:56.918Z,23.99
2018-06-15T17:56:25.957Z,23.98
2018-06-15T17:58:54.922Z,23.66
2018-06-15T18:01:23.926Z,23.59
2018-06-15T18:03:52.910Z,23.39
2018-06-15T18:06:21.865Z,23.28
2018-06-15T18:08:51.095Z,23.16
2018-06-15T18:11:20.053Z,22.91
2018-06-15T18:13:49.005Z,22.81
2018-06-15T18:16:18.006Z,22.76
2018-06-15T18:18:47.053Z,22.64
2018-06-15T18:21:16.038Z,22.60
2018-06-15T18:23:45.018Z,22.34
2018-06-15T18:26:14.005Z,22.24
2018-06-15T18:28:42.984Z,22.14
2018-06-15T18:31:12.141Z,22.06
2018-06-15T18:33:41.142Z,21.93
2018-06-15T18:36:10.128Z,21.85
2018-06-15T18:38:39.224Z,21.77
2018-06-15T18:41:08.265Z,21.66
2018-06-15T18:43:37.221Z,21.61
2018-06-15T18:46:06.326Z,21.46
2018-06-15T18:48:35.354Z,21.38
2018-06-15T18:51:04.560Z,21.27
2018-06-15T18:53:33.546Z,21.18
2018-06-15T18:56:02.534Z,21.13
2018-06-15T18:58:31.502Z,20.96
2018-06-15T19:01:00.637Z,20.89
2018-06-15T19:03:29.624Z,20.72
2018-06-15T19:05:58.674Z,20.56
2018-06-15T19:08:27.709Z,20.46
2018-06-15T19:10:56.664Z,20.42
2018-06-15T19:13:25.779Z,20.27
2018-06-15T19:15:54.797Z,20.18
2018-06-15T19:18:23.800Z,20.14
2018-06-15T19:20:52.773Z,20.08
2018-06-15T19:23:21.733Z,20.00
2018-06-15T19:25:50.724Z,19.93
2018-06-15T19:28:19.692Z,19.84
2018-06-15T19:30:48.660Z,19.81
2018-06-15T19:33:17.762Z,19.76
2018-06-15T19:35:46.833Z,19.70
2018-06-15T19:38:15.799Z,19.65
2018-06-15T19:40:44.794Z,19.57
2018-06-15T19:43:13.787Z,19.52
2018-06-15T19:45:44.820Z,19.48
2018-06-15T19:48:13.842Z,19.44
2018-06-15T19:50:42.799Z,19.48
2018-06-15T19:53:11.761Z,19.51
2018-06-15T19:55:40.705Z,19.54
2018-06-15T19:58:09.641Z,19.53
2018-06-15T20:00:38.577Z,19.46
2018-06-15T20:03:07.610Z,19.39
2018-06-15T20:05:37.570Z,19.37
2018-06-15T20:08:06.590Z,19.40
2018-06-15T20:10:35.551Z,19.45
2018-06-15T20:13:04.668Z,19.54
2018-06-15T20:15:33.625Z,19.61
2018-06-15T20:18:02.616Z,19.66
2018-06-15T20:20:31.639Z,19.63
2018-06-15T20:23:00.663Z,19.59
2018-06-15T20:25:29.697Z,19.59
2018-06-15T20:27:58.666Z,19.59
2018-06-15T20:30:27.669Z,19.56
2018-06-15T20:32:56.689Z,19.55
2018-06-15T20:35:25.694Z,19.59
2018-06-15T20:37:54.750Z,19.56
2018-06-15T20:40:23.707Z,19.50
2018-06-15T20:42:52.670Z,19.49
2018-06-15T20:45:21.729Z,19.47
2018-06-15T20:47:50.691Z,19.50
2018-06-15T20:50:19.711Z,19.48
2018-06-15T20:52:48.758Z,19.43
2018-06-15T20:55:17.711Z,19.44
2018-06-15T20:57:46.669Z,19.46
2018-06-15T21:00:15.625Z,19.50
2018-06-15T21:02:44.604Z,19.51
2018-06-15T21:05:13.566Z,19.55
2018-06-15T21:07:42.549Z,19.58
2018-06-15T21:10:11.525Z,19.56
2018-06-15T21:12:40.490Z,19.53
2018-06-15T21:15:09.438Z,19.55
2018-06-15T21:17:38.403Z,19.53
2018-06-15T21:20:07.477Z,19.53
2018-06-15T21:22:36.422Z,19.51
2018-06-15T21:25:05.419Z,19.50
2018-06-15T21:27:34.436Z,19.52
2018-06-15T21:30:03.415Z,19.52
2018-06-15T21:32:32.440Z,19.53
2018-06-15T21:35:01.438Z,19.51
2018-06-15T21:37:30.459Z,19.49
2018-06-15T21:39:59.473Z,19.43
2018-06-15T21:42:28.529Z,19.42
2018-06-15T21:44:57.526Z,19.39
2018-06-15T21:47:26.548Z,19.37
2018-06-15T21:49:55.480Z,19.35
2018-06-15T21:52:24.444Z,19.35
2018-06-15T21:54:53.477Z,19.35
2018-06-15T21:57:22.555Z,19.34
2018-06-15T21:59:51.548Z,19.32
2018-06-15T22:02:20.520Z,19.31
2018-06-15T22:04:50.330Z,19.30
2018-06-15T22:07:19.568Z,19.31
2018-06-15T22:09:48.549Z,19.33
2018-06-15T22:12:17.662Z,19.34
2018-06-15T22:14:46.644Z,19.32
2018-06-15T22:17:15.612Z,19.31
2018-06-15T22:19:44.571Z,19.27
2018-06-15T22:22:13.594Z,19.28
2018-06-15T22:24:42.578Z,19.24
2018-06-15T22:27:11.516Z,19.23
2018-06-15T22:29:40.490Z,19.23
2018-06-15T22:32:09.439Z,19.18
2018-06-15T22:34:38.622Z,19.18
2018-06-15T22:37:07.654Z,19.17
2018-06-15T22:39:36.597Z,19.16
2018-06-15T22:42:05.563Z,19.12
2018-06-15T22:44:34.563Z,19.06
2018-06-15T22:47:03.518Z,18.94
2018-06-15T22:49:32.524Z,18.90
2018-06-15T22:52:01.533Z,18.91
2018-06-15T22:54:30.612Z,18.88
2018-06-15T22:56:59.541Z,18.87
2018-06-15T22:59:28.673Z,18.86
2018-06-15T23:01:57.778Z,18.84
2018-06-15T23:04:26.787Z,18.76
2018-06-15T23:06:55.749Z,18.71
2018-06-15T23:09:24.714Z,18.72
2018-06-15T23:11:53.794Z,18.67
2018-06-15T23:14:22.734Z,18.70
2018-06-15T23:16:51.740Z,18.71
2018-06-15T23:19:20.688Z,18.71
2018-06-15T23:21:49.661Z,18.68
2018-06-15T23:24:18.686Z,18.72
2018-06-15T23:26:47.674Z,18.75
2018-06-15T23:29:16.702Z,18.73
2018-06-15T23:31:45.768Z,18.72
2018-06-15T23:34:14.756Z,18.69
2018-06-15T23:36:43.801Z,18.69
2018-06-15T23:39:13.279Z,18.67
2018-06-15T23:41:42.265Z,18.69
2018-06-15T23:44:11.246Z,18.68
2018-06-15T23:46:40.291Z,18.67
2018-06-15T23:49:09.309Z,18.68
2018-06-15T23:51:38.264Z,18.63
2018-06-15T23:54:07.240Z,18.63
2018-06-15T23:56:36.174Z,18.65
2018-06-15T23:59:05.377Z,18.65
